createdAt,value
2022-11-17T00:00:49.426Z,95750.69
2022-11-17T00:03:17.942Z,95748.25
2022-11-17T00:05:46.192Z,95744.66
2022-11-17T00:08:14.469Z,95745.41
2022-11-17T00:10:43.972Z,95748.13
2022-11-17T00:13:30.005Z,95744.06
2022-11-17T00:15:58.659Z,95746.25
2022-11-17T00:18:44.544Z,95747.66
2022-11-17T00:21:24.005Z,95740.47
2022-11-17T00:23:52.245Z,95745.19
2022-11-17T00:26:24.217Z,95741.22
2022-11-17T00:28:54.671Z,95745.44
2022-11-17T00:31:41.237Z,95741.38
2022-11-17T00:34:13.926Z,95740.25
2022-11-17T00:36:43.662Z,95740.94
2022-11-17T00:39:13.278Z,95741.56
2022-11-17T00:41:43.320Z,95739.19
2022-11-17T00:44:12.123Z,95742.66
2022-11-17T00:46:40.840Z,95732.34
2022-11-17T00:49:12.790Z,95738.19
2022-11-17T00:51:41.266Z,95738.38
2022-11-17T00:54:13.246Z,95733.38
2022-11-17T00:56:42.792Z,95732.31
2022-11-17T00:59:11.494Z,95745.16
2022-11-17T01:01:40.171Z,95734.03
2022-11-17T01:04:08.594Z,95726.03
2022-11-17T01:06:39.209Z,95729.13
2022-11-17T01:09:09.614Z,95730.06
2022-11-17T01:11:38.248Z,95727.94
2022-11-17T01:14:08.035Z,95732.94
2022-11-17T01:16:36.125Z,95726.50
2022-11-17T01:19:05.309Z,95725.31
2022-11-17T01:21:33.844Z,95722.22
2022-11-17T01:24:03.003Z,95716.63
2022-11-17T01:26:34.322Z,95727.63
2022-11-17T01:29:03.628Z,95719.38
2022-11-17T01:31:34.936Z,95715.47
2022-11-17T01:34:03.180Z,95706.72
2022-11-17T01:36:56.261Z,95709.78
2022-11-17T01:39:24.995Z,95703.03
2022-11-17T01:41:53.879Z,95698.94
2022-11-17T01:44:59.171Z,95702.63
2022-11-17T01:47:34.044Z,95700.44
2022-11-17T01:50:07.369Z,95700.66
2022-11-17T01:52:37.343Z,95694.63
2022-11-17T01:55:07.843Z,95698.53
2022-11-17T01:57:40.333Z,95694.91
2022-11-17T02:00:11.433Z,95688.47
2022-11-17T02:02:42.436Z,95698.25
2022-11-17T02:05:23.688Z,95694.56
2022-11-17T02:07:54.764Z,95691.50
2022-11-17T02:10:23.101Z,95695.50
2022-11-17T02:12:53.316Z,95688.56
2022-11-17T02:15:22.296Z,95699.72
2022-11-17T02:17:52.972Z,95694.41
2022-11-17T02:20:31.803Z,95697.19
2022-11-17T02:23:27.272Z,95702.97
2022-11-17T02:26:21.275Z,95701.97
2022-11-17T02:28:58.643Z,95700.53
2022-11-17T02:31:35.079Z,95694.50
2022-11-17T02:34:08.945Z,95689.41
2022-11-17T02:36:44.341Z,95692.06
2022-11-17T02:39:19.314Z,95681.91
2022-11-17T02:41:53.755Z,95674.41
2022-11-17T02:44:30.860Z,95677.34
2022-11-17T02:47:04.007Z,95676.13
2022-11-17T02:49:36.969Z,95677.94
2022-11-17T02:52:07.484Z,95686.78
2022-11-17T02:54:35.878Z,95683.53
2022-11-17T02:57:04.201Z,95680.75
2022-11-17T02:59:36.361Z,95679.97
2022-11-17T03:02:20.904Z,95680.63
2022-11-17T03:05:05.592Z,95677.25
2022-11-17T03:07:48.075Z,95677.44
2022-11-17T03:10:21.131Z,95681.03
2022-11-17T03:12:56.412Z,95684.75
2022-11-17T03:15:34.103Z,95677.50
2022-11-17T03:18:09.026Z,95667.44
2022-11-17T03:20:48.232Z,95670.06
2022-11-17T03:23:20.889Z,95670.06
2022-11-17T03:25:54.749Z,95669.03
2022-11-17T03:28:28.088Z,95670.94
2022-11-17T03:30:59.424Z,95680.53
2022-11-17T03:33:28.928Z,95673.81
2022-11-17T03:36:02.696Z,95680.16
2022-11-17T03:38:43.835Z,95680.28
2022-11-17T03:41:15.458Z,95678.56
2022-11-17T03:43:45.507Z,95681.34
2022-11-17T03:46:18.234Z,95678.91
2022-11-17T03:48:52.721Z,95683.09
2022-11-17T03:51:24.453Z,95681.00
2022-11-17T03:53:54.699Z,95670.66
2022-11-17T03:56:38.571Z,95661.19
2022-11-17T03:59:14.196Z,95666.25
2022-11-17T04:01:43.919Z,95668.91
2022-11-17T04:04:17.475Z,95669.41
2022-11-17T04:06:45.641Z,95670.75
2022-11-17T04:09:13.798Z,95658.16
2022-11-17T04:11:59.621Z,95664.50
2022-11-17T04:14:50.645Z,95672.66
2022-11-17T04:17:20.409Z,95666.56
2022-11-17T04:19:48.759Z,95669.53
2022-11-17T04:22:16.815Z,95661.91
2022-11-17T04:24:44.859Z,95673.47
2022-11-17T04:27:30.608Z,95670.06
2022-11-17T04:29:58.789Z,95667.47
2022-11-17T04:32:28.130Z,95669.13
2022-11-17T04:34:56.239Z,95666.28
2022-11-17T04:37:24.260Z,95669.75
2022-11-17T04:39:52.320Z,95673.75
2022-11-17T04:42:19.769Z,95675.66
2022-11-17T04:44:47.748Z,95677.84
2022-11-17T04:47:15.921Z,95673.06
2022-11-17T04:49:45.283Z,95666.47
2022-11-17T04:52:13.231Z,95660.41
2022-11-17T04:54:41.371Z,95665.94
2022-11-17T04:57:09.353Z,95665.66
2022-11-17T04:59:37.826Z,95665.41
2022-11-17T05:02:06.438Z,95667.09
2022-11-17T05:04:52.413Z,95666.13
2022-11-17T05:07:21.945Z,95659.50
2022-11-17T05:09:49.986Z,95655.50
2022-11-17T05:12:35.316Z,95656.97
2022-11-17T05:15:03.618Z,95656.53
2022-11-17T05:17:30.865Z,95657.47
2022-11-17T05:19:58.926Z,95654.75
2022-11-17T05:22:45.584Z,95652.22
2022-11-17T05:25:13.614Z,95655.69
2022-11-17T05:27:41.805Z,95662.88
2022-11-17T05:30:11.891Z,95656.75
2022-11-17T05:32:39.831Z,95656.03
2022-11-17T05:35:08.776Z,95653.91
2022-11-17T05:37:38.087Z,95659.22
2022-11-17T05:40:07.600Z,95658.44
2022-11-17T05:42:36.203Z,95650.06
2022-11-17T05:45:04.222Z,95651.78
2022-11-17T05:47:32.352Z,95651.25
2022-11-17T05:50:00.395Z,95644.81
2022-11-17T05:52:28.531Z,95638.50
2022-11-17T05:54:58.010Z,95641.38
2022-11-17T05:57:32.563Z,95642.09
2022-11-17T06:00:04.620Z,95647.41
2022-11-17T06:02:46.159Z,95649.88
2022-11-17T06:05:19.773Z,95653.59
2022-11-17T06:07:48.790Z,95644.78
2022-11-17T06:10:18.666Z,95647.72
2022-11-17T06:12:46.997Z,95645.84
2022-11-17T06:15:15.128Z,95639.78
2022-11-17T06:17:48.776Z,95639.69
2022-11-17T06:20:20.620Z,95641.38
2022-11-17T06:22:50.794Z,95630.97
2022-11-17T06:25:21.888Z,95631.66
2022-11-17T06:27:51.945Z,95645.13
2022-11-17T06:30:20.431Z,95653.34
2022-11-17T06:32:50.016Z,95646.75
2022-11-17T06:35:18.784Z,95650.13
2022-11-17T06:37:46.890Z,95633.13
2022-11-17T06:40:15.071Z,95634.13
2022-11-17T06:43:02.163Z,95633.69
2022-11-17T06:45:33.639Z,95634.22
2022-11-17T06:48:02.254Z,95636.38
2022-11-17T06:50:30.533Z,95639.25
2022-11-17T06:52:59.384Z,95642.97
2022-11-17T06:55:28.018Z,95640.56
2022-11-17T06:58:02.939Z,95636.53
2022-11-17T07:00:31.828Z,95634.50
2022-11-17T07:03:01.897Z,95625.78
2022-11-17T07:05:31.335Z,95623.66
2022-11-17T07:08:00.089Z,95630.91
2022-11-17T07:10:29.569Z,95633.28
2022-11-17T07:12:58.112Z,95627.75
2022-11-17T07:15:28.388Z,95627.13
2022-11-17T07:17:56.545Z,95624.88
2022-11-17T07:20:24.823Z,95633.44
2022-11-17T07:22:53.441Z,95635.09
2022-11-17T07:25:22.678Z,95626.78
2022-11-17T07:27:59.038Z,95635.00
2022-11-17T07:30:29.040Z,95636.59
2022-11-17T07:32:59.687Z,95634.59
2022-11-17T07:35:28.179Z,95633.81
2022-11-17T07:37:59.435Z,95628.34
2022-11-17T07:40:27.570Z,95619.53
2022-11-17T07:42:55.994Z,95627.97
2022-11-17T07:45:30.430Z,95633.16
2022-11-17T07:48:03.242Z,95643.47
2022-11-17T07:50:31.973Z,95633.97
2022-11-17T07:53:00.416Z,95628.75
2022-11-17T07:55:29.109Z,95622.19
2022-11-17T07:57:58.376Z,95616.56
2022-11-17T08:00:28.439Z,95616.44
2022-11-17T08:02:56.775Z,95627.22
2022-11-17T08:05:30.524Z,95622.06
2022-11-17T08:08:00.552Z,95612.19
2022-11-17T08:10:31.350Z,95623.16
2022-11-17T08:13:00.894Z,95623.91
2022-11-17T08:15:29.613Z,95624.75
2022-11-17T08:17:59.333Z,95633.44
2022-11-17T08:20:30.318Z,95633.03
2022-11-17T08:22:58.653Z,95630.81
2022-11-17T08:25:28.225Z,95628.88
2022-11-17T08:27:57.736Z,95615.91
2022-11-17T08:30:27.077Z,95623.94
2022-11-17T08:32:56.102Z,95630.13
2022-11-17T08:35:26.615Z,95618.28
2022-11-17T08:37:56.333Z,95621.13
2022-11-17T08:40:24.767Z,95620.34
2022-11-17T08:43:00.606Z,95616.03
2022-11-17T08:45:29.978Z,95617.72
2022-11-17T08:47:58.083Z,95615.69
2022-11-17T08:50:26.550Z,95623.97
2022-11-17T08:52:56.016Z,95631.94
2022-11-17T08:55:26.302Z,95633.00
2022-11-17T08:57:54.794Z,95633.63
2022-11-17T09:00:23.305Z,95633.97
2022-11-17T09:02:51.865Z,95635.22
2022-11-17T09:05:21.047Z,95623.59
2022-11-17T09:07:49.160Z,95627.91
2022-11-17T09:10:19.539Z,95628.41
2022-11-17T09:12:48.082Z,95621.28
2022-11-17T09:15:16.575Z,95616.38
2022-11-17T09:17:48.107Z,95616.94
2022-11-17T09:20:17.303Z,95626.03
2022-11-17T09:22:46.024Z,95632.38
2022-11-17T09:25:14.965Z,95638.63
2022-11-17T09:27:44.651Z,95646.75
2022-11-17T09:30:13.171Z,95636.94
2022-11-17T09:32:41.237Z,95640.13
2022-11-17T09:35:10.994Z,95637.50
2022-11-17T09:37:39.424Z,95636.75
2022-11-17T09:40:11.127Z,95634.44
2022-11-17T09:42:41.019Z,95636.59
2022-11-17T09:45:19.009Z,95629.28
2022-11-17T09:48:02.550Z,95622.53
2022-11-17T09:50:42.012Z,95623.03
2022-11-17T09:53:16.154Z,95635.78
2022-11-17T09:55:47.503Z,95633.25
2022-11-17T09:58:20.502Z,95623.63
2022-11-17T10:00:52.791Z,95626.66
2022-11-17T10:03:23.247Z,95621.28
2022-11-17T10:05:53.326Z,95620.44
2022-11-17T10:08:29.374Z,95628.34
2022-11-17T10:10:57.765Z,95620.72
2022-11-17T10:13:29.073Z,95635.44
2022-11-17T10:16:02.238Z,95640.75
2022-11-17T10:18:37.750Z,95645.38
2022-11-17T10:21:08.383Z,95650.22
2022-11-17T10:23:44.572Z,95651.19
2022-11-17T10:26:16.916Z,95656.19
2022-11-17T10:28:46.027Z,95642.94
2022-11-17T10:31:17.886Z,95650.59
2022-11-17T10:33:47.946Z,95647.50
2022-11-17T10:36:20.556Z,95642.22
2022-11-17T10:38:50.860Z,95633.75
2022-11-17T10:41:21.589Z,95625.91
2022-11-17T10:43:59.841Z,95619.31
2022-11-17T10:46:35.784Z,95617.53
2022-11-17T10:49:26.122Z,95629.56
2022-11-17T10:52:06.182Z,95630.16
2022-11-17T10:54:34.586Z,95633.97
2022-11-17T10:57:06.648Z,95625.03
2022-11-17T10:59:43.408Z,95620.31
2022-11-17T11:02:29.865Z,95626.31
2022-11-17T11:05:17.286Z,95625.81
2022-11-17T11:07:45.944Z,95623.28
2022-11-17T11:10:18.008Z,95620.66
2022-11-17T11:12:51.141Z,95617.84
2022-11-17T11:15:22.342Z,95613.50
2022-11-17T11:17:52.652Z,95611.13
2022-11-17T11:20:25.447Z,95611.84
2022-11-17T11:23:00.801Z,95599.72
2022-11-17T11:25:37.230Z,95586.97
2022-11-17T11:28:16.443Z,95580.25
2022-11-17T11:30:55.908Z,95580.13
2022-11-17T11:33:35.214Z,95571.19
2022-11-17T11:36:20.207Z,95568.47
2022-11-17T11:38:56.638Z,95573.28
2022-11-17T11:41:48.921Z,95570.06
2022-11-17T11:44:30.469Z,95561.28
2022-11-17T11:47:05.776Z,95576.59
2022-11-17T11:49:43.567Z,95562.28
2022-11-17T11:52:15.867Z,95573.44
2022-11-17T11:54:51.210Z,95572.50
2022-11-17T11:57:25.057Z,95575.38
2022-11-17T12:00:02.431Z,95583.47
2022-11-17T12:02:42.130Z,95579.59
2022-11-17T12:05:20.679Z,95590.34
2022-11-17T12:07:54.496Z,95582.75
2022-11-17T12:10:31.489Z,95581.94
2022-11-17T12:13:01.266Z,95588.00
2022-11-17T12:15:39.486Z,95582.53
2022-11-17T12:18:14.334Z,95570.63
2022-11-17T12:20:58.894Z,95563.94
2022-11-17T12:23:46.389Z,95556.44
2022-11-17T12:26:23.642Z,95572.53
2022-11-17T12:29:25.689Z,95559.06
2022-11-17T12:31:55.305Z,95553.97
2022-11-17T12:34:30.661Z,95554.88
2022-11-17T12:37:27.507Z,95556.13
2022-11-17T12:40:08.131Z,95557.06
2022-11-17T12:42:37.866Z,95544.94
2022-11-17T12:45:09.148Z,95558.03
2022-11-17T12:47:39.594Z,95554.19
2022-11-17T12:50:44.189Z,95540.84
2022-11-17T12:53:39.667Z,95535.38
2022-11-17T12:56:34.754Z,95526.56
2022-11-17T12:59:26.887Z,95540.59
2022-11-17T13:02:05.923Z,95540.19
2022-11-17T13:04:49.116Z,95539.63
2022-11-17T13:07:21.534Z,95530.81
2022-11-17T13:10:02.767Z,95530.00
2022-11-17T13:12:32.589Z,95530.34
2022-11-17T13:15:03.194Z,95528.19
2022-11-17T13:17:34.579Z,95518.84
2022-11-17T13:20:05.142Z,95513.41
2022-11-17T13:22:37.647Z,95528.47
2022-11-17T13:25:23.352Z,95526.97
2022-11-17T13:27:57.151Z,95520.69
2022-11-17T13:30:28.931Z,95528.88
2022-11-17T13:32:59.325Z,95526.31
2022-11-17T13:35:30.197Z,95530.16
2022-11-17T13:38:07.259Z,95534.22
2022-11-17T13:40:38.089Z,95531.97
2022-11-17T13:43:08.532Z,95521.19
2022-11-17T13:45:36.897Z,95521.91
2022-11-17T13:48:05.720Z,95513.25
2022-11-17T13:50:38.392Z,95510.03
2022-11-17T13:53:21.212Z,95510.16
2022-11-17T13:55:51.653Z,95506.56
2022-11-17T13:58:31.701Z,95510.47
2022-11-17T14:01:00.673Z,95509.34
2022-11-17T14:03:37.253Z,95505.09
2022-11-17T14:06:07.666Z,95501.66
2022-11-17T14:08:37.322Z,95512.19
2022-11-17T14:11:13.808Z,95506.75
2022-11-17T14:13:44.693Z,95518.03
2022-11-17T14:16:22.795Z,95521.97
2022-11-17T14:19:01.045Z,95520.78
2022-11-17T14:21:31.502Z,95521.19
2022-11-17T14:24:11.480Z,95522.97
2022-11-17T14:26:45.033Z,95521.31
2022-11-17T14:29:14.750Z,95517.00
2022-11-17T14:31:43.182Z,95511.50
2022-11-17T14:34:11.715Z,95512.97
2022-11-17T14:36:40.743Z,95518.13
2022-11-17T14:39:16.071Z,95521.97
2022-11-17T14:41:47.035Z,95520.88
2022-11-17T14:44:15.311Z,95519.69
2022-11-17T14:46:43.814Z,95529.19
2022-11-17T14:49:12.251Z,95529.47
2022-11-17T14:51:40.796Z,95535.56
2022-11-17T14:54:09.232Z,95539.97
2022-11-17T14:56:37.410Z,95541.41
2022-11-17T14:59:07.004Z,95545.44
2022-11-17T15:01:38.577Z,95546.41
2022-11-17T15:04:34.536Z,95552.63
2022-11-17T15:06:57.293Z,95548.22
2022-11-17T15:09:25.399Z,95550.66
2022-11-17T15:11:53.472Z,95550.31
2022-11-17T15:14:23.044Z,95541.16
2022-11-17T15:16:51.162Z,95537.69
2022-11-17T15:19:19.343Z,95545.38
2022-11-17T15:21:47.323Z,95542.13
2022-11-17T15:24:15.843Z,95540.94
2022-11-17T15:26:44.461Z,95539.16
2022-11-17T15:29:15.272Z,95537.63
2022-11-17T15:31:45.088Z,95535.50
2022-11-17T15:34:17.158Z,95536.03
2022-11-17T15:36:48.166Z,95530.13
2022-11-17T15:39:16.989Z,95535.34
2022-11-17T15:41:48.914Z,95532.38
2022-11-17T15:44:18.809Z,95537.88
2022-11-17T15:46:48.571Z,95540.88
2022-11-17T15:49:16.999Z,95536.16
2022-11-17T15:51:45.306Z,95523.84
2022-11-17T15:54:19.624Z,95532.22
2022-11-17T15:56:49.456Z,95534.59
2022-11-17T15:59:17.678Z,95528.19
2022-11-17T16:01:45.945Z,95532.88
2022-11-17T16:04:16.413Z,95527.59
2022-11-17T16:06:46.436Z,95530.16
2022-11-17T16:09:15.980Z,95532.97
2022-11-17T16:11:45.545Z,95526.81
2022-11-17T16:14:14.897Z,95529.25
2022-11-17T16:16:43.701Z,95524.50
2022-11-17T16:19:11.822Z,95531.91
2022-11-17T16:21:41.256Z,95531.91
2022-11-17T16:24:12.084Z,95527.78
2022-11-17T16:26:40.274Z,95525.84
2022-11-17T16:29:08.950Z,95529.03
2022-11-17T16:31:37.839Z,95524.41
2022-11-17T16:34:07.303Z,95525.00
2022-11-17T16:36:38.336Z,95520.19
2022-11-17T16:39:09.568Z,95524.81
2022-11-17T16:41:39.409Z,95525.13
2022-11-17T16:44:09.643Z,95517.66
2022-11-17T16:46:37.745Z,95518.66
2022-11-17T16:49:08.403Z,95525.78
2022-11-17T16:51:36.696Z,95525.34
2022-11-17T16:54:08.455Z,95524.28
2022-11-17T16:56:36.517Z,95520.41
2022-11-17T16:59:04.826Z,95520.88
2022-11-17T17:01:34.777Z,95521.69
2022-11-17T17:04:04.909Z,95521.91
2022-11-17T17:06:33.744Z,95518.72
2022-11-17T17:09:04.472Z,95517.38
2022-11-17T17:11:35.692Z,95527.00
2022-11-17T17:14:05.400Z,95516.16
2022-11-17T17:16:35.676Z,95531.22
2022-11-17T17:19:05.917Z,95538.94
2022-11-17T17:21:34.750Z,95533.69
2022-11-17T17:24:03.255Z,95528.16
2022-11-17T17:26:34.397Z,95534.19
2022-11-17T17:29:04.469Z,95533.50
2022-11-17T17:31:35.598Z,95525.00
2022-11-17T17:34:04.262Z,95528.69
2022-11-17T17:36:32.371Z,95529.38
2022-11-17T17:39:02.715Z,95534.16
2022-11-17T17:41:32.937Z,95539.06
2022-11-17T17:44:04.497Z,95537.25
2022-11-17T17:46:35.997Z,95533.13
2022-11-17T17:49:04.455Z,95532.22
2022-11-17T17:51:32.549Z,95543.47
2022-11-17T17:54:02.105Z,95548.06
2022-11-17T17:56:31.553Z,95541.19
2022-11-17T17:59:00.547Z,95546.31
2022-11-17T18:01:33.118Z,95544.69
2022-11-17T18:04:05.058Z,95538.09
2022-11-17T18:06:37.262Z,95544.59
2022-11-17T18:09:05.629Z,95542.13
2022-11-17T18:11:34.139Z,95534.16
2022-11-17T18:14:02.576Z,95532.22
2022-11-17T18:16:33.708Z,95535.72
2022-11-17T18:19:04.219Z,95536.69
2022-11-17T18:21:33.415Z,95533.06
2022-11-17T18:24:03.119Z,95542.00
2022-11-17T18:26:32.820Z,95541.13
2022-11-17T18:29:02.510Z,95535.78
2022-11-17T18:31:34.181Z,95536.97
2022-11-17T18:34:04.303Z,95530.63
2022-11-17T18:36:32.510Z,95527.31
2022-11-17T18:39:00.641Z,95526.81
2022-11-17T18:41:30.923Z,95526.44
2022-11-17T18:43:59.505Z,95530.56
2022-11-17T18:46:29.701Z,95532.09
2022-11-17T18:48:59.708Z,95531.59
2022-11-17T18:51:29.810Z,95529.19
2022-11-17T18:53:59.546Z,95539.06
2022-11-17T18:56:29.780Z,95530.66
2022-11-17T18:58:58.156Z,95519.44
2022-11-17T19:01:28.862Z,95526.38
2022-11-17T19:04:01.181Z,95518.81
2022-11-17T19:06:29.681Z,95522.22
2022-11-17T19:08:59.772Z,95532.16
2022-11-17T19:11:30.764Z,95531.59
2022-11-17T19:14:02.213Z,95531.97
2022-11-17T19:16:31.849Z,95533.16
2022-11-17T19:19:01.435Z,95533.22
2022-11-17T19:21:30.597Z,95532.66
2022-11-17T19:24:00.417Z,95523.13
2022-11-17T19:26:32.194Z,95528.50
2022-11-17T19:29:02.328Z,95520.72
2022-11-17T19:31:30.521Z,95515.84
2022-11-17T19:33:59.709Z,95520.56
2022-11-17T19:36:30.578Z,95521.00
2022-11-17T19:39:00.681Z,95521.41
2022-11-17T19:41:30.882Z,95517.66
2022-11-17T19:44:00.873Z,95527.84
2022-11-17T19:46:30.051Z,95530.28
2022-11-17T19:48:58.684Z,95525.28
2022-11-17T19:51:30.211Z,95535.47
2022-11-17T19:54:01.235Z,95537.56
2022-11-17T19:56:29.495Z,95536.28
2022-11-17T19:58:57.580Z,95541.50
2022-11-17T20:01:27.572Z,95537.19
2022-11-17T20:03:57.439Z,95528.75
2022-11-17T20:06:27.807Z,95528.22
2022-11-17T20:08:57.906Z,95527.34
2022-11-17T20:11:27.927Z,95519.41
2022-11-17T20:13:56.750Z,95515.84
2022-11-17T20:16:26.894Z,95513.53
2022-11-17T20:18:56.329Z,95517.44
2022-11-17T20:21:24.610Z,95522.56
2022-11-17T20:23:53.009Z,95518.88
2022-11-17T20:26:24.968Z,95523.94
2022-11-17T20:28:53.675Z,95511.56
2022-11-17T20:31:24.309Z,95513.97
2022-11-17T20:33:56.359Z,95505.13
2022-11-17T20:36:25.726Z,95510.66
2022-11-17T20:38:55.865Z,95506.84
2022-11-17T20:41:25.859Z,95510.41
2022-11-17T20:43:56.228Z,95511.44
2022-11-17T20:46:25.235Z,95516.13
2022-11-17T20:48:53.353Z,95507.19
2022-11-17T20:51:23.324Z,95509.88
2022-11-17T20:53:51.596Z,95509.84
2022-11-17T20:56:20.355Z,95505.03
2022-11-17T20:58:49.880Z,95497.69
2022-11-17T21:01:20.520Z,95498.44
2022-11-17T21:03:49.293Z,95498.44
2022-11-17T21:06:18.423Z,95503.34
2022-11-17T21:08:47.461Z,95501.84
2022-11-17T21:11:37.767Z,95498.19
2022-11-17T21:14:09.585Z,95508.44
2022-11-17T21:16:39.526Z,95513.53
2022-11-17T21:19:08.279Z,95514.66
2022-11-17T21:21:36.394Z,95515.09
2022-11-17T21:24:04.880Z,95507.59
2022-11-17T21:26:33.613Z,95507.06
2022-11-17T21:29:16.829Z,95504.63
2022-11-17T21:31:46.509Z,95503.03
2022-11-17T21:34:17.166Z,95511.53
2022-11-17T21:36:45.335Z,95513.66
2022-11-17T21:39:18.630Z,95518.16
2022-11-17T21:41:46.989Z,95513.41
2022-11-17T21:44:15.312Z,95503.03
2022-11-17T21:46:43.539Z,95504.13
2022-11-17T21:49:14.420Z,95508.88
2022-11-17T21:51:42.679Z,95528.25
2022-11-17T21:54:11.145Z,95533.69
2022-11-17T21:56:40.251Z,95531.19
2022-11-17T21:59:12.106Z,95515.38
2022-11-17T22:01:41.023Z,95517.94
2022-11-17T22:04:09.050Z,95522.28
2022-11-17T22:06:39.737Z,95517.13
2022-11-17T22:09:08.147Z,95512.13
2022-11-17T22:11:36.890Z,95507.34
2022-11-17T22:14:08.121Z,95502.53
2022-11-17T22:16:36.873Z,95508.47
2022-11-17T22:19:05.795Z,95506.69
2022-11-17T22:21:34.045Z,95498.31
2022-11-17T22:24:03.832Z,95496.97
2022-11-17T22:26:32.754Z,95495.66
2022-11-17T22:29:00.718Z,95502.03
2022-11-17T22:31:28.838Z,95510.31
2022-11-17T22:33:56.921Z,95525.06
2022-11-17T22:36:25.064Z,95527.19
2022-11-17T22:38:53.832Z,95529.47
2022-11-17T22:41:24.198Z,95534.16
2022-11-17T22:43:53.247Z,95534.66
2022-11-17T22:46:22.586Z,95536.38
2022-11-17T22:48:50.753Z,95532.91
2022-11-17T22:51:39.656Z,95526.44
2022-11-17T22:54:08.864Z,95525.91
2022-11-17T22:56:38.484Z,95542.53
2022-11-17T22:59:06.557Z,95535.56
2022-11-17T23:01:35.501Z,95532.88
2022-11-17T23:04:03.778Z,95531.19
2022-11-17T23:06:31.773Z,95526.28
2022-11-17T23:08:59.919Z,95525.69
2022-11-17T23:11:37.446Z,95524.22
2022-11-17T23:14:11.341Z,95526.50
2022-11-17T23:16:40.374Z,95527.06
2022-11-17T23:19:09.571Z,95530.00
2022-11-17T23:21:37.752Z,95531.75
2022-11-17T23:24:06.264Z,95536.47
2022-11-17T23:26:34.348Z,95532.69
2022-11-17T23:29:02.389Z,95530.94
2022-11-17T23:31:31.983Z,95525.97
2022-11-17T23:34:00.090Z,95523.03
2022-11-17T23:36:28.395Z,95527.50
2022-11-17T23:38:57.562Z,95523.00
2022-11-17T23:41:25.681Z,95518.81
2022-11-17T23:43:55.108Z,95513.22
2022-11-17T23:46:24.778Z,95512.94
2022-11-17T23:48:57.091Z,95502.53
2022-11-17T23:51:28.764Z,95503.97
2022-11-17T23:53:58.995Z,95504.81
2022-11-17T23:56:27.418Z,95505.56
2022-11-17T23:58:55.402Z,95505.91
